Time;durP1;ratioP1;P1;durP2;ratioP2;P2;SDS_P1;SDS_P2;PMS_P1;PMS_P2;Temp;Humidity;BMP_temperature;BMP_pressure;BME280_temperature;BME280_humidity;BME280_pressure;Samples;Min_cycle;Max_cycle;Signal;HPM_P1;HPM_P2
2022/11/09 00:00:05;;;;;;;4.93;2.55;;;;;;;21.18;48.08;100419.22;5090600;28;20039;-68
2022/11/09 00:02:31;;;;;;;5.22;2.25;;;;;;;21.12;47.89;100414.72;5093789;28;20097;-68
2022/11/09 00:04:56;;;;;;;4.57;2.70;;;;;;;21.18;48.19;100427.16;5093810;28;20043;-68
2022/11/09 00:07:22;;;;;;;4.63;2.80;;;;;;;21.19;47.97;100428.84;5091753;28;20039;-68
2022/11/09 00:09:47;;;;;;;4.10;2.50;;;;;;;21.20;48.18;100416.41;5089701;28;20039;-68
2022/11/09 00:12:13;;;;;;;4.38;2.20;;;;;;;21.18;47.75;100408.63;5088612;28;20047;-68
2022/11/09 00:14:38;;;;;;;5.15;2.60;;;;;;;21.11;48.31;100407.81;5089293;28;20067;-68
2022/11/09 00:17:04;;;;;;;3.30;2.20;;;;;;;21.12;47.96;100402.31;5093653;28;20047;-68
2022/11/09 00:19:29;;;;;;;3.45;2.42;;;;;;;21.15;48.07;100401.09;5090922;28;20032;-68
2022/11/09 00:21:55;;;;;;;4.20;2.42;;;;;;;21.21;48.00;100402.97;5097052;28;20051;-68
2022/11/09 00:24:20;;;;;;;4.28;2.42;;;;;;;21.18;47.97;100405.97;5092128;28;20393;-68
2022/11/09 00:26:46;;;;;;;4.28;2.30;;;;;;;21.28;47.74;100398.53;5090966;28;20034;-69
2022/11/09 00:29:11;;;;;;;2.85;2.33;;;;;;;21.17;47.90;100393.75;5092355;28;20618;-68
2022/11/09 00:31:37;;;;;;;3.28;2.40;;;;;;;21.09;48.05;100392.13;5087195;28;20047;-68
2022/11/09 00:34:02;;;;;;;5.32;2.53;;;;;;;21.18;47.98;100392.75;5088107;28;20044;-68
2022/11/09 00:36:29;;;;;;;4.80;2.20;;;;;;;21.13;48.02;100385.41;5095899;27;20058;-69
2022/11/09 00:38:57;;;;;;;4.13;2.28;;;;;;;21.24;47.91;100396.44;5092670;28;20126;-68
2022/11/09 00:41:24;;;;;;;2.77;2.13;;;;;;;21.22;48.15;100387.91;5091507;28;20032;-68
2022/11/09 00:43:50;;;;;;;3.13;2.30;;;;;;;21.27;47.97;100393.44;5090709;28;20880;-67
2022/11/09 00:46:17;;;;;;;3.20;2.65;;;;;;;21.16;47.84;100383.38;5089487;28;20024;-68
2022/11/09 00:48:43;;;;;;;4.07;2.38;;;;;;;21.21;47.88;100379.13;5092883;28;20090;-68
2022/11/09 00:51:09;;;;;;;5.50;2.55;;;;;;;21.16;48.15;100378.88;5091451;28;20036;-68
2022/11/09 00:53:35;;;;;;;4.82;2.50;;;;;;;21.19;47.99;100388.28;5090067;28;20197;-68
2022/11/09 00:56:04;;;;;;;4.18;2.40;;;;;;;21.13;48.23;100385.41;5086631;28;20040;-68
2022/11/09 00:58:32;;;;;;;3.33;2.43;;;;;;;21.14;47.99;100388.88;5086709;28;20081;-69
2022/11/09 01:01:03;;;;;;;3.67;2.25;;;;;;;21.18;47.98;100382.16;5090074;28;20560;-68
2022/11/09 01:03:29;;;;;;;2.85;2.05;;;;;;;21.23;47.87;100386.88;5093517;28;20504;-68
2022/11/09 01:05:58;;;;;;;2.80;2.17;;;;;;;21.16;48.15;100389.47;5088534;28;20044;-68
2022/11/09 01:08:24;;;;;;;4.63;2.08;;;;;;;21.16;48.05;100384.19;5093176;28;20472;-68
2022/11/09 01:10:50;;;;;;;3.80;2.15;;;;;;;21.18;47.92;100387.44;5091508;28;20042;-68
2022/11/09 01:13:16;;;;;;;5.32;2.38;;;;;;;21.23;47.99;100394.81;5093193;28;20032;-68
2022/11/09 01:15:48;;;;;;;4.25;2.28;;;;;;;21.11;48.08;100389.28;5092452;28;20089;-68
2022/11/09 01:18:15;;;;;;;3.28;2.33;;;;;;;21.12;47.97;100388.25;5093788;28;20439;-68
2022/11/09 01:20:43;;;;;;;2.45;2.00;;;;;;;21.14;48.21;100386.22;5088004;28;20050;-68
2022/11/09 01:23:10;;;;;;;3.58;2.35;;;;;;;21.12;47.91;100391.72;5089564;28;20039;-68
2022/11/09 01:25:36;;;;;;;3.75;2.47;;;;;;;21.13;48.24;100392.53;5088048;28;20035;-68
2022/11/09 01:28:03;;;;;;;3.63;2.38;;;;;;;21.06;48.46;100392.53;5089816;28;21764;-68
2022/11/09 01:30:28;;;;;;;3.58;2.35;;;;;;;21.10;48.27;100399.03;5093607;28;20047;-68
2022/11/09 01:32:55;;;;;;;3.80;2.28;;;;;;;21.04;48.52;100388.44;5087235;28;20052;-68
2022/11/09 01:35:21;;;;;;;2.67;2.17;;;;;;;21.14;48.08;100391.53;5089644;28;20043;-68
2022/11/09 01:37:46;;;;;;;3.40;2.30;;;;;;;21.10;48.33;100390.28;5085218;28;20340;-68
2022/11/09 01:40:12;;;;;;;3.72;2.20;;;;;;;21.16;48.08;100380.72;5088383;27;20036;-67
2022/11/09 01:42:38;;;;;;;2.88;2.10;;;;;;;21.24;47.74;100392.00;5088739;28;20032;-68
2022/11/09 01:45:16;;;;;;;4.28;2.20;;;;;;;21.16;47.92;100397.44;5079487;28;20524;-68
2022/11/09 01:47:44;;;;;;;3.28;2.20;;;;;;;21.12;47.94;100389.06;5087423;28;20039;-68
2022/11/09 01:50:12;;;;;;;4.30;2.30;;;;;;;21.19;48.03;100383.81;5087510;28;20039;-68
2022/11/09 01:52:42;;;;;;;3.25;2.15;;;;;;;21.16;47.95;100393.97;5087640;28;20036;-68
2022/11/09 01:55:15;;;;;;;2.67;2.17;;;;;;;21.07;48.17;100388.03;5087188;28;20019;-68
2022/11/09 01:57:46;;;;;;;2.90;2.10;;;;;;;21.08;48.13;100384.38;5088455;28;20058;-68
2022/11/09 02:00:14;;;;;;;2.80;2.22;;;;;;;21.10;48.32;100382.34;5085155;28;20093;-68
2022/11/09 02:02:46;;;;;;;4.70;2.50;;;;;;;21.11;48.02;100376.03;5087967;28;20032;-68
2022/11/09 02:05:17;;;;;;;2.53;2.20;;;;;;;21.14;48.28;100380.94;5091593;28;20043;-68
2022/11/09 02:07:45;;;;;;;2.92;2.17;;;;;;;21.11;48.22;100376.84;5088184;28;20043;-68
2022/11/09 02:10:37;;;;;;;3.05;2.10;;;;;;;21.17;48.16;100377.06;5088647;28;20040;-68
2022/11/09 02:13:04;;;;;;;3.47;2.05;;;;;;;21.09;48.32;100365.66;5091840;28;20055;-68
2022/11/09 02:15:36;;;;;;;2.67;2.13;;;;;;;21.13;47.94;100366.88;5101683;27;20403;-68
2022/11/09 02:18:02;;;;;;;3.10;2.00;;;;;;;21.17;47.93;100374.41;5073090;28;20042;-68
2022/11/09 02:20:28;;;;;;;2.72;2.00;;;;;;;21.14;47.90;100375.63;5086764;28;20080;-68
2022/11/09 02:22:54;;;;;;;2.67;1.90;;;;;;;21.09;48.20;100370.94;5081003;28;20113;-67
2022/11/09 02:25:20;;;;;;;2.13;1.90;;;;;;;21.08;48.20;100377.25;5088018;28;20122;-68
2022/11/09 02:27:48;;;;;;;3.90;2.35;;;;;;;21.05;48.37;100374.19;5085302;28;20098;-68
2022/11/09 02:30:14;;;;;;;3.38;2.05;;;;;;;21.10;48.10;100385.00;5087478;28;20081;-68
2022/11/09 02:32:40;;;;;;;3.22;2.10;;;;;;;21.05;48.04;100382.94;5102204;27;20024;-67
2022/11/09 02:35:06;;;;;;;3.75;2.10;;;;;;;21.15;48.22;100390.50;5089236;28;20694;-68
2022/11/09 02:37:41;;;;;;;4.43;2.28;;;;;;;21.16;47.96;100381.53;5090256;28;20768;-68
2022/11/09 02:40:20;;;;;;;3.95;2.42;;;;;;;21.08;48.35;100377.25;5091241;28;20482;-68
2022/11/09 02:42:45;;;;;;;3.50;2.53;;;;;;;21.13;48.07;100377.47;5081718;28;20024;-67
2022/11/09 02:45:11;;;;;;;5.18;2.20;;;;;;;21.08;47.94;100377.25;5092715;28;20820;-68
2022/11/09 02:47:38;;;;;;;4.25;2.17;;;;;;;21.17;47.70;100372.56;5089241;28;20071;-68
2022/11/09 02:50:06;;;;;;;2.58;1.92;;;;;;;21.11;48.05;100368.09;5092592;28;20045;-68
2022/11/09 02:52:31;;;;;;;3.20;2.10;;;;;;;21.09;48.21;100370.94;5083932;28;21135;-68
2022/11/09 02:54:57;;;;;;;3.10;1.83;;;;;;;21.14;47.86;100372.97;5075261;28;20039;-68
2022/11/09 02:57:22;;;;;;;2.92;1.90;;;;;;;21.06;48.39;100374.00;5095105;28;20036;-68
2022/11/09 02:59:49;;;;;;;3.55;2.10;;;;;;;21.10;48.02;100375.22;5092903;27;20051;-68
2022/11/09 03:02:15;;;;;;;2.97;2.22;;;;;;;21.10;48.15;100377.06;5089884;28;20130;-68
2022/11/09 03:04:40;;;;;;;3.67;2.08;;;;;;;21.14;47.94;100375.63;5094745;28;20035;-68
2022/11/09 03:07:07;;;;;;;4.63;2.33;;;;;;;21.13;48.16;100377.47;5088219;28;20084;-68
2022/11/09 03:09:32;;;;;;;4.47;2.50;;;;;;;21.12;48.15;100383.78;5092490;28;20436;-68
2022/11/09 03:11:58;;;;;;;2.90;2.15;;;;;;;21.11;48.13;100376.03;5089898;28;20044;-68
2022/11/09 03:14:23;;;;;;;4.38;2.22;;;;;;;21.14;48.12;100383.56;5093669;28;20895;-68
2022/11/09 03:16:53;;;;;;;4.00;2.05;;;;;;;21.10;47.94;100382.34;5090731;28;20062;-68
2022/11/09 03:19:19;;;;;;;2.83;2.15;;;;;;;21.08;48.12;100387.03;5093660;28;20035;-68
2022/11/09 03:21:46;;;;;;;4.38;2.50;;;;;;;21.09;48.24;100386.81;5089887;28;20092;-68
2022/11/09 03:24:12;;;;;;;4.18;2.25;;;;;;;21.11;47.89;100391.91;5091523;27;20043;-68
2022/11/09 03:26:39;;;;;;;5.57;2.70;;;;;;;21.08;48.43;100395.78;5087707;28;20850;-68
2022/11/09 03:29:04;;;;;;;2.58;1.90;;;;;;;21.12;47.78;100389.06;5091380;28;20040;-69
2022/11/09 03:31:30;;;;;;;4.65;2.10;;;;;;;21.06;48.28;100389.06;5088512;28;20035;-68
2022/11/09 03:34:00;;;;;;;;;;;;;;;21.15;48.12;100394.97;5105761;27;20112;-68
2022/11/09 03:36:26;;;;;;;3.15;1.90;;;;;;;21.08;48.10;100385.19;5092770;28;19931;-68
2022/11/09 03:38:51;;;;;;;3.78;1.98;;;;;;;21.15;48.08;100387.03;5092667;28;20036;-68
2022/11/09 03:41:17;;;;;;;3.85;2.60;;;;;;;21.16;47.73;100380.72;5086761;28;20032;-68
2022/11/09 03:43:43;;;;;;;2.97;1.98;;;;;;;21.07;48.29;100385.41;5088706;28;20192;-68
2022/11/09 03:46:08;;;;;;;3.65;2.15;;;;;;;21.08;47.98;100389.66;5088224;28;20047;-68
2022/11/09 03:48:33;;;;;;;2.70;2.17;;;;;;;21.05;48.42;100390.06;5090534;28;20028;-68
2022/11/09 03:50:59;;;;;;;2.53;2.10;;;;;;;21.18;47.89;100405.16;5090046;28;20500;-68
2022/11/09 03:53:24;;;;;;;2.67;2.17;;;;;;;21.05;48.13;100411.25;5093759;28;20039;-67
2022/11/09 03:55:50;;;;;;;2.72;2.08;;;;;;;21.09;47.95;100418.59;5092488;28;20039;-68
2022/11/09 03:58:15;;;;;;;3.65;2.00;;;;;;;21.07;48.17;100409.22;5090209;28;20051;-68
2022/11/09 04:00:41;;;;;;;3.17;2.00;;;;;;;21.09;48.01;100412.47;5087517;28;20043;-68
2022/11/09 04:03:07;;;;;;;2.90;1.80;;;;;;;21.13;47.95;100406.59;5095097;28;20060;-67
2022/11/09 04:05:32;;;;;;;2.40;1.83;;;;;;;21.04;48.33;100406.97;5093989;28;20047;-67
2022/11/09 04:07:58;;;;;;;3.08;2.10;;;;;;;21.09;48.06;100400.06;5097521;28;20408;-67
2022/11/09 04:10:24;;;;;;;3.35;2.00;;;;;;;21.05;48.03;100417.38;5091420;28;20090;-67
2022/11/09 04:12:50;;;;;;;4.03;1.92;;;;;;;21.00;48.50;100403.06;5091000;28;20047;-68
2022/11/09 04:15:16;;;;;;;3.15;2.08;;;;;;;21.12;47.94;100412.09;5086248;28;20028;-68
2022/11/09 04:17:43;;;;;;;2.45;1.85;;;;;;;21.16;48.00;100404.56;5087335;28;20027;-67
2022/11/09 04:20:09;;;;;;;3.00;2.00;;;;;;;21.03;48.15;100403.50;5086857;28;20047;-68
2022/11/09 04:22:35;;;;;;;4.05;2.00;;;;;;;21.05;48.11;100408.59;5091105;28;20040;-68
2022/11/09 04:25:01;;;;;;;2.45;2.00;;;;;;;21.04;48.25;100409.63;5088307;28;20048;-67
2022/11/09 04:27:28;;;;;;;2.72;2.03;;;;;;;20.97;48.53;100412.22;5087329;28;20043;-68
2022/11/09 04:29:54;;;;;;;3.22;1.90;;;;;;;21.02;48.19;100414.31;5087828;28;20470;-68
2022/11/09 04:32:19;;;;;;;2.83;2.10;;;;;;;21.05;47.95;100413.91;5089494;28;20035;-68
2022/11/09 04:34:45;;;;;;;3.58;2.00;;;;;;;21.10;48.09;100414.94;5087445;28;20047;-68
2022/11/09 04:37:10;;;;;;;3.95;2.35;;;;;;;21.05;48.01;100417.38;5090243;28;20413;-68
2022/11/09 04:39:36;;;;;;;4.57;1.88;;;;;;;21.09;48.15;100429.19;5089001;28;20250;-68
2022/11/09 04:42:02;;;;;;;4.43;2.10;;;;;;;20.98;48.24;100436.88;5090914;28;20043;-68
2022/11/09 04:44:28;;;;;;;3.58;1.90;;;;;;;21.10;48.01;100430.81;5090158;28;20031;-68
2022/11/09 04:46:54;;;;;;;2.80;1.90;;;;;;;21.06;48.23;100431.41;5087025;28;20040;-67
2022/11/09 04:49:19;;;;;;;3.10;2.10;;;;;;;21.11;47.78;100443.03;5085622;28;20044;-67
2022/11/09 04:51:45;;;;;;;3.42;2.15;;;;;;;21.00;48.53;100437.47;5089167;28;20389;-68
2022/11/09 04:54:11;;;;;;;3.58;1.92;;;;;;;20.97;48.46;100449.28;5091489;28;20032;-68
2022/11/09 04:56:36;;;;;;;2.90;2.00;;;;;;;20.93;48.23;100445.41;5087130;28;20059;-68
2022/11/09 04:59:02;;;;;;;2.15;1.80;;;;;;;21.02;48.15;100454.81;5093135;28;20064;-68
2022/11/09 05:01:27;;;;;;;2.78;1.80;;;;;;;21.04;48.28;100454.63;5085221;28;20036;-67
2022/11/09 05:03:53;;;;;;;4.05;2.38;;;;;;;21.04;48.08;100446.69;5089443;28;20043;-68
2022/11/09 05:06:30;;;;;;;2.08;1.85;;;;;;;21.06;47.95;100457.88;5086127;28;20101;-69
2022/11/09 05:08:57;;;;;;;4.25;2.20;;;;;;;21.10;47.85;100448.53;5088140;28;20071;-68
2022/11/09 05:11:23;;;;;;;2.53;1.80;;;;;;;21.06;48.06;100447.31;5091155;28;20051;-68
2022/11/09 05:13:50;;;;;;;4.00;2.10;;;;;;;21.01;48.01;100439.13;5087273;28;20036;-68
2022/11/09 05:16:16;;;;;;;3.10;1.80;;;;;;;21.01;48.17;100447.09;5076310;28;20035;-69
2022/11/09 05:18:42;;;;;;;2.97;1.98;;;;;;;21.02;48.18;100441.59;5081740;28;20443;-68
2022/11/09 05:21:07;;;;;;;2.60;1.80;;;;;;;20.98;48.25;100452.75;5091686;28;20040;-68
2022/11/09 05:26:17;;;;;;;4.63;1.98;;;;;;;20.97;48.40;100451.94;5086540;28;20036;-68
2022/11/09 05:28:43;;;;;;;3.90;1.90;;;;;;;21.02;48.24;100452.19;5082117;28;20550;-68
2022/11/09 05:31:09;;;;;;;4.05;1.90;;;;;;;21.00;48.13;100445.41;5090093;28;20057;-68
2022/11/09 05:33:35;;;;;;;3.55;1.75;;;;;;;20.99;48.39;100457.84;5090179;28;20044;-68
2022/11/09 05:36:00;;;;;;;2.25;2.00;;;;;;;21.09;48.01;100453.00;5093181;28;20056;-69
2022/11/09 05:38:25;;;;;;;3.47;1.92;;;;;;;21.05;48.15;100456.25;5095371;28;20050;-69
2022/11/09 05:40:52;;;;;;;3.40;2.08;;;;;;;21.03;47.92;100461.75;5092335;28;20038;-68
2022/11/09 05:43:18;;;;;;;5.20;2.03;;;;;;;21.12;48.08;100451.78;5092436;28;20032;-68
2022/11/09 05:45:44;;;;;;;3.75;2.10;;;;;;;21.09;47.94;100457.50;5091407;28;20035;-69
2022/11/09 05:48:13;;;;;;;2.35;1.65;;;;;;;20.95;47.87;100431.97;5090772;28;20031;-69
2022/11/09 05:50:40;;;;;;;1.95;1.75;;;;;;;21.05;47.88;100454.44;5092610;28;20076;-68
2022/11/09 05:53:15;;;;;;;3.78;2.05;;;;;;;21.04;48.24;100454.63;5087259;28;20046;-68
2022/11/09 05:55:40;;;;;;;2.35;1.75;;;;;;;21.04;48.07;100458.09;5089744;28;20482;-68
2022/11/09 05:58:06;;;;;;;4.65;2.25;;;;;;;21.04;47.96;100458.09;5089473;28;21750;-69
2022/11/09 06:00:32;;;;;;;1.75;1.65;;;;;;;21.04;48.20;100462.56;5090414;28;20039;-68
2022/11/09 06:03:02;;;;;;;3.33;2.17;;;;;;;21.04;47.96;100470.50;5086983;28;20677;-69
2022/11/09 06:05:28;;;;;;;4.10;2.13;;;;;;;21.08;48.02;100471.75;5085121;28;20603;-68
2022/11/09 06:07:54;;;;;;;4.15;2.10;;;;;;;21.03;48.22;100469.69;5094252;28;20074;-69
2022/11/09 06:10:19;;;;;;;2.70;1.88;;;;;;;20.95;48.13;100463.72;5088008;28;20742;-68
2022/11/09 06:12:49;;;;;;;3.35;1.98;;;;;;;20.96;48.22;100462.72;5091877;28;20036;-69
2022/11/09 06:15:15;;;;;;;;;;;;;;;20.97;48.35;100473.09;5088011;28;20051;-68
2022/11/09 06:17:40;;;;;;;3.38;2.10;;;;;;;20.99;48.15;100468.44;5089752;28;19924;-68
2022/11/09 06:20:06;;;;;;;3.88;1.90;;;;;;;21.01;47.99;100477.00;5089078;28;20040;-68
2022/11/09 06:22:31;;;;;;;2.40;1.98;;;;;;;20.98;48.01;100476.56;5089308;28;20722;-68
2022/11/09 06:24:57;;;;;;;3.45;1.77;;;;;;;21.02;47.90;100483.13;5085570;28;20390;-68
2022/11/09 06:27:22;;;;;;;4.53;1.88;;;;;;;20.99;48.13;100475.56;5091616;28;20051;-68
2022/11/09 06:29:48;;;;;;;2.55;1.98;;;;;;;20.86;48.34;100481.59;5088249;28;20417;-68
2022/11/09 06:32:13;;;;;;;3.63;1.90;;;;;;;21.03;47.97;100474.16;5090803;28;20039;-68
2022/11/09 06:34:39;;;;;;;3.70;2.08;;;;;;;20.94;48.23;100485.91;5089279;28;20044;-68
2022/11/09 06:37:04;;;;;;;2.17;1.80;;;;;;;21.00;48.25;100487.78;5092040;28;20040;-68
2022/11/09 06:39:30;;;;;;;2.85;1.83;;;;;;;20.95;48.41;100496.31;5093267;28;20027;-69
2022/11/09 06:41:55;;;;;;;3.47;1.90;;;;;;;21.06;47.99;100487.81;5090514;28;20048;-69
2022/11/09 06:44:21;;;;;;;2.28;1.73;;;;;;;20.99;48.29;100492.25;5087950;28;20425;-69
2022/11/09 06:46:46;;;;;;;3.80;1.90;;;;;;;21.05;48.27;100490.69;5088734;28;20051;-69
2022/11/09 06:49:12;;;;;;;3.53;2.10;;;;;;;20.96;48.21;100500.59;5088135;28;20035;-68
2022/11/09 06:51:37;;;;;;;3.47;1.70;;;;;;;21.00;47.95;100503.66;5083241;28;20097;-69
2022/11/09 06:54:03;;;;;;;4.10;2.17;;;;;;;20.94;48.29;100507.09;5090463;28;20048;-68
2022/11/09 06:56:29;;;;;;;3.22;1.90;;;;;;;20.93;48.17;100513.41;5090423;28;20039;-68
2022/11/09 06:58:54;;;;;;;3.78;1.88;;;;;;;20.96;48.17;100518.31;5090221;28;20134;-68
2022/11/09 07:01:25;;;;;;;2.67;1.80;;;;;;;20.97;48.04;100526.03;5086413;28;20578;-68
2022/11/09 07:03:51;;;;;;;3.22;1.83;;;;;;;20.89;48.46;100520.91;5086781;28;20048;-68
2022/11/09 07:06:17;;;;;;;2.83;1.75;;;;;;;20.93;48.12;100511.56;5093226;28;20531;-68
2022/11/09 07:08:42;;;;;;;3.85;1.67;;;;;;;20.89;48.61;100518.28;5081478;28;20044;-68
2022/11/09 07:11:11;;;;;;;2.90;1.52;;;;;;;20.92;47.98;100519.72;5083200;28;20040;-69
2022/11/09 07:13:38;;;;;;;1.85;1.75;;;;;;;20.89;48.10;100520.91;5086281;28;20085;-69
2022/11/09 07:16:05;;;;;;;2.55;1.83;;;;;;;20.98;48.21;100522.38;5087357;28;20047;-68
2022/11/09 07:18:31;;;;;;;3.58;2.30;;;;;;;20.91;48.37;100523.38;5089483;28;20371;-69
2022/11/09 07:20:56;;;;;;;3.00;1.70;;;;;;;20.95;48.23;100522.78;5090983;28;20044;-68
2022/11/09 07:23:22;;;;;;;2.92;1.80;;;;;;;20.85;48.59;100526.78;5099825;28;20035;-69
2022/11/09 07:25:48;;;;;;;3.80;1.90;;;;;;;20.85;48.48;100522.31;5090645;28;20085;-69
2022/11/09 07:28:13;;;;;;;5.30;1.88;;;;;;;20.98;48.14;100527.69;5091046;28;20044;-69
2022/11/09 07:30:39;;;;;;;3.58;1.75;;;;;;;20.91;48.03;100524.19;5089777;28;20043;-68
2022/11/09 07:33:14;;;;;;;2.38;1.73;;;;;;;20.99;48.12;100528.50;5094405;28;20031;-69
2022/11/09 07:35:40;;;;;;;2.45;1.50;;;;;;;20.92;48.10;100532.94;5090854;28;20592;-68
2022/11/09 07:38:06;;;;;;;3.17;1.73;;;;;;;20.90;48.40;100533.13;5096894;28;20039;-68
2022/11/09 07:40:32;;;;;;;4.88;1.90;;;;;;;20.92;48.13;100540.88;5085953;28;20043;-68
2022/11/09 07:43:02;;;;;;;2.72;1.65;;;;;;;20.89;48.16;100534.16;5096385;28;20055;-68
2022/11/09 07:45:28;;;;;;;;;;;;;;;20.92;47.92;100536.41;5091853;28;20035;-68
2022/11/09 07:48:01;;;;;;;3.45;2.17;;;;;;;20.88;48.24;100561.63;5093706;28;19916;-69
2022/11/09 07:50:28;;;;;;;2.22;1.85;;;;;;;20.90;48.35;100553.50;5092476;28;20039;-68
2022/11/09 07:52:58;;;;;;;3.17;2.03;;;;;;;20.88;48.42;100556.34;5089882;28;20027;-67
2022/11/09 07:55:24;;;;;;;;;;;;;;;20.94;48.27;100566.13;5089497;28;20051;-68
2022/11/09 07:58:14;;;;;;;4.75;2.00;;;;;;;20.91;48.09;100563.88;5091358;28;19955;-68
2022/11/09 08:00:41;;;;;;;3.72;1.63;;;;;;;20.97;47.96;100562.28;5088909;28;20048;-68
2022/11/09 08:03:07;;;;;;;1.98;1.67;;;;;;;20.94;48.15;100565.31;5092186;28;20043;-68
2022/11/09 08:05:33;;;;;;;2.53;1.40;;;;;;;20.95;47.98;100569.59;5087883;28;20736;-68
2022/11/09 08:08:01;;;;;;;2.28;1.55;;;;;;;20.96;47.90;100574.69;5091180;28;20044;-68
2022/11/09 08:10:28;;;;;;;2.97;1.80;;;;;;;20.94;48.31;100587.31;5091820;28;20136;-68
2022/11/09 08:12:59;;;;;;;2.53;1.38;;;;;;;20.91;48.14;100585.06;5092428;28;20080;-68
2022/11/09 08:15:26;;;;;;;4.78;1.80;;;;;;;20.90;48.17;100583.44;5092161;28;20043;-68
2022/11/09 08:17:51;;;;;;;3.38;1.95;;;;;;;20.81;48.46;100580.09;5092139;28;20389;-67
2022/11/09 08:20:18;;;;;;;2.08;1.67;;;;;;;21.02;47.94;100573.13;5088011;28;20032;-68
2022/11/09 08:22:45;;;;;;;3.40;1.58;;;;;;;21.01;47.88;100566.22;5094383;28;20044;-67
2022/11/09 08:25:12;;;;;;;2.13;1.67;;;;;;;20.98;48.14;100572.69;5085662;28;20035;-67
2022/11/09 08:27:39;;;;;;;3.50;2.03;;;;;;;21.01;47.75;100566.22;5090612;28;20063;-68
2022/11/09 08:30:14;;;;;;;1.90;1.48;;;;;;;20.96;47.92;100572.06;5094029;28;20039;-66
2022/11/09 08:32:42;;;;;;;2.22;1.58;;;;;;;21.10;47.47;100568.50;5093762;28;20066;-65
2022/11/09 08:35:09;;;;;;;2.95;1.80;;;;;;;21.07;47.71;100568.88;5092483;28;20040;-66
2022/11/09 08:37:38;;;;;;;3.42;1.80;;;;;;;20.99;47.82;100579.59;5090264;28;20032;-69
2022/11/09 08:40:05;;;;;;;3.13;2.03;;;;;;;20.99;47.93;100571.66;5096987;28;20027;-69
2022/11/09 08:42:31;;;;;;;3.80;1.90;;;;;;;21.07;47.45;100566.25;5087308;28;20071;-69
2022/11/09 08:44:57;;;;;;;4.80;2.10;;;;;;;21.07;47.48;100570.72;5093302;28;20177;-68
2022/11/09 08:47:22;;;;;;;2.78;1.80;;;;;;;21.03;47.83;100565.00;5089494;28;20058;-65
2022/11/09 08:49:48;;;;;;;5.20;1.98;;;;;;;21.02;47.70;100579.25;5090019;28;20062;-66
2022/11/09 08:52:15;;;;;;;4.28;1.90;;;;;;;21.08;47.66;100569.69;5094583;28;20110;-66
2022/11/09 08:54:40;;;;;;;5.95;2.50;;;;;;;20.99;47.55;100574.31;5095346;28;20032;-68
2022/11/09 08:57:06;;;;;;;3.45;1.80;;;;;;;21.04;47.74;100571.09;5099041;28;20121;-66
2022/11/09 08:59:31;;;;;;;4.40;1.95;;;;;;;21.12;47.31;100574.41;5104004;28;20050;-67
2022/11/09 09:01:57;;;;;;;3.47;1.80;;;;;;;21.05;47.73;100573.56;5096988;28;20070;-68
2022/11/09 09:04:23;;;;;;;3.92;1.85;;;;;;;20.99;47.80;100568.19;5093233;28;20535;-68
2022/11/09 09:06:48;;;;;;;3.10;2.03;;;;;;;21.01;47.64;100576.78;5095962;28;20027;-66
2022/11/09 09:09:14;;;;;;;3.70;1.92;;;;;;;20.95;48.01;100599.53;5089719;28;20054;-68
2022/11/09 09:11:39;;;;;;;2.38;1.92;;;;;;;21.10;47.48;100586.22;5088674;28;20098;-68
2022/11/09 09:14:05;;;;;;;3.92;1.88;;;;;;;21.04;47.67;100582.50;5090005;28;20032;-66
2022/11/09 09:16:31;;;;;;;3.95;1.90;;;;;;;21.08;47.28;100593.53;5089396;28;20040;-68
2022/11/09 09:18:57;;;;;;;4.75;2.30;;;;;;;21.07;47.53;100578.66;5093804;28;20040;-68
2022/11/09 09:21:23;;;;;;;2.83;1.90;;;;;;;21.05;47.44;100576.22;5088045;28;20032;-69
2022/11/09 09:23:48;;;;;;;5.53;2.10;;;;;;;21.03;47.44;100588.00;5090921;28;20130;-70
2022/11/09 09:26:15;;;;;;;4.82;1.95;;;;;;;21.03;47.70;100582.72;5093171;28;20513;-69
2022/11/09 09:28:40;;;;;;;3.72;2.10;;;;;;;21.07;47.60;100589.25;5099003;28;20508;-69
2022/11/09 09:31:06;;;;;;;5.72;2.10;;;;;;;21.07;47.50;100584.78;5090783;28;20048;-69
2022/11/09 09:33:33;;;;;;;4.20;2.00;;;;;;;21.10;47.35;100594.97;5092436;28;20093;-66
2022/11/09 09:35:59;;;;;;;2.53;1.75;;;;;;;21.08;47.56;100594.34;5087481;28;20823;-69
2022/11/09 09:38:26;;;;;;;3.83;2.10;;;;;;;21.04;47.75;100597.59;5094745;28;20047;-67
2022/11/09 09:41:04;;;;;;;2.40;1.85;;;;;;;21.00;47.84;100599.78;5094704;28;20626;-69
2022/11/09 09:43:34;;;;;;;5.85;1.92;;;;;;;20.99;47.69;100605.25;5094104;28;20611;-66
2022/11/09 09:46:04;;;;;;;4.10;2.10;;;;;;;21.07;47.60;100608.59;5086571;28;20042;-67
2022/11/09 09:48:39;;;;;;;4.75;2.00;;;;;;;21.07;47.34;100608.59;5089605;28;20077;-66
2022/11/09 09:51:17;;;;;;;3.58;2.05;;;;;;;21.03;47.79;100611.84;5085455;28;20682;-68
2022/11/09 09:53:52;;;;;;;4.63;2.20;;;;;;;21.04;47.34;100605.53;5089132;28;20097;-69
2022/11/09 09:56:33;;;;;;;4.85;2.30;;;;;;;21.04;47.44;100616.94;5090423;28;20040;-67
2022/11/09 09:59:03;;;;;;;3.47;2.15;;;;;;;21.06;47.51;100609.59;5091280;28;20054;-68
2022/11/09 10:01:38;;;;;;;5.45;1.80;;;;;;;21.03;47.72;100607.34;5094249;28;20028;-66
2022/11/09 10:04:39;;;;;;;3.80;2.00;;;;;;;21.01;47.80;100614.66;5100084;27;20451;-66
2022/11/09 10:07:13;;;;;;;3.50;1.95;;;;;;;21.07;47.22;100611.25;5094816;28;20496;-68
2022/11/09 10:09:38;;;;;;;5.22;2.22;;;;;;;21.04;47.74;100611.63;5091420;28;20036;-68
2022/11/09 10:12:18;;;;;;;5.13;2.10;;;;;;;20.97;47.64;100610.75;5092066;28;20114;-66
2022/11/09 10:15:05;;;;;;;2.95;2.03;;;;;;;21.07;47.27;100613.06;5085547;28;20036;-68
2022/11/09 10:17:47;;;;;;;4.22;1.90;;;;;;;21.10;47.12;100615.31;5090779;28;20769;-67
2022/11/09 10:20:35;;;;;;;5.47;2.42;;;;;;;20.97;47.86;100621.34;5091707;28;20030;-68
2022/11/09 10:23:34;;;;;;;5.47;2.35;;;;;;;21.00;47.66;100620.13;5090205;28;20580;-68
2022/11/09 10:26:13;;;;;;;4.15;1.73;;;;;;;20.97;47.71;100616.03;5093834;28;20583;-65
2022/11/09 10:28:41;;;;;;;5.97;2.03;;;;;;;20.99;47.66;100621.97;5086776;28;20131;-66
2022/11/09 10:31:17;;;;;;;3.85;2.10;;;;;;;20.99;47.31;100619.31;5071840;28;20055;-67
2022/11/09 10:33:48;;;;;;;6.75;1.98;;;;;;;21.05;47.30;100625.69;5087201;28;20063;-66
2022/11/09 10:36:20;;;;;;;7.38;2.40;;;;;;;21.02;47.41;100628.72;5091084;28;20024;-68
2022/11/09 10:38:50;;;;;;;4.93;2.13;;;;;;;21.05;47.61;100626.50;5086744;28;20553;-68
2022/11/09 10:41:40;;;;;;;4.53;2.20;;;;;;;21.05;47.37;100623.03;5087004;28;20097;-67
2022/11/09 10:44:24;;;;;;;;;;;;;;;21.02;47.61;100611.00;5092182;28;20047;-68
2022/11/09 10:47:10;;;;;;;4.05;2.00;;;;;;;21.03;47.48;100625.06;5087310;28;20031;-68
2022/11/09 10:50:25;;;;;;;5.57;2.25;;;;;;;21.01;47.63;100633.19;5089770;28;20073;-68
2022/11/09 10:53:22;;;;;;;6.65;2.53;;;;;;;21.06;47.45;100624.69;5091156;28;20174;-68
2022/11/09 10:56:17;;;;;;;2.80;2.00;;;;;;;21.08;47.25;100633.25;5092703;28;20050;-68
2022/11/09 10:59:01;;;;;;;5.15;2.05;;;;;;;21.05;47.29;100625.69;5095103;28;20062;-68
2022/11/09 11:01:45;;;;;;;4.30;2.25;;;;;;;21.07;47.33;100624.47;5098674;28;20543;-68
2022/11/09 11:04:29;;;;;;;5.22;2.00;;;;;;;21.03;47.37;100625.88;5096359;28;20416;-69
2022/11/09 11:07:17;;;;;;;4.05;2.03;;;;;;;21.04;47.40;100621.41;5097575;28;20062;-68
2022/11/09 11:10:31;;;;;;;4.80;2.00;;;;;;;21.06;47.51;100620.19;5089220;28;20082;-68
2022/11/09 11:13:21;;;;;;;5.53;2.20;;;;;;;21.04;47.45;100616.13;5092515;28;20104;-68
2022/11/09 11:16:28;;;;;;;5.32;2.45;;;;;;;21.02;47.54;100612.84;5094626;28;20566;-68
2022/11/09 11:19:44;;;;;;;5.57;2.60;;;;;;;21.09;47.32;100614.50;5092048;28;20046;-68
2022/11/09 11:22:29;;;;;;;6.35;2.30;;;;;;;21.06;47.30;100614.09;5066348;28;20051;-68
2022/11/09 11:25:19;;;;;;;8.40;2.42;;;;;;;21.05;47.44;100615.91;5092709;28;20050;-68
2022/11/09 11:28:16;;;;;;;6.55;3.00;;;;;;;21.12;47.24;100615.94;5092872;28;20098;-68
2022/11/09 11:31:01;;;;;;;4.70;2.28;;;;;;;21.08;47.37;100628.75;5097125;28;20046;-68
2022/11/09 11:33:45;;;;;;;4.10;2.15;;;;;;;21.05;47.15;100623.84;5087751;28;20077;-68
2022/11/09 11:36:49;;;;;;;4.93;2.25;;;;;;;21.00;47.59;100625.44;5092105;28;20058;-68
2022/11/09 11:39:58;;;;;;;7.28;2.35;;;;;;;21.04;47.42;100619.56;5090100;28;20055;-68